createdAt,value
2019-05-01T00:01:03.194Z,16.15
2019-05-01T00:03:39.175Z,15.20
2019-05-01T00:06:09.558Z,15.97
2019-05-01T00:08:38.117Z,14.78
2019-05-01T00:11:06.656Z,15.30
2019-05-01T00:13:35.266Z,15.65
2019-05-01T00:16:03.935Z,15.60
2019-05-01T00:18:32.428Z,15.83
2019-05-01T00:21:00.961Z,16.03
2019-05-01T00:23:29.454Z,16.48
2019-05-01T00:25:57.917Z,15.50
2019-05-01T00:28:26.484Z,15.15
2019-05-01T00:30:54.957Z,14.13
2019-05-01T00:33:23.457Z,15.28
2019-05-01T00:35:52.007Z,16.20
2019-05-01T00:38:20.496Z,15.75
2019-05-01T00:40:48.978Z,15.23
2019-05-01T00:43:17.474Z,15.78
2019-05-01T00:45:45.951Z,14.20
2019-05-01T00:48:14.445Z,14.33
2019-05-01T00:50:42.914Z,15.23
2019-05-01T00:53:11.486Z,15.63
2019-05-01T00:55:50.616Z,16.00
2019-05-01T00:58:29.293Z,15.68
2019-05-01T01:01:02.140Z,15.10
2019-05-01T01:03:31.719Z,16.12
2019-05-01T01:06:00.118Z,13.80
2019-05-01T01:08:28.625Z,16.48
2019-05-01T01:10:57.104Z,15.28
2019-05-01T01:13:25.678Z,15.05
2019-05-01T01:15:54.211Z,17.50
2019-05-01T01:18:22.704Z,17.15
2019-05-01T01:20:51.190Z,15.30
2019-05-01T01:23:19.754Z,15.40
2019-05-01T01:25:48.397Z,15.77
2019-05-01T01:28:17.564Z,16.97
2019-05-01T01:30:55.652Z,15.93
2019-05-01T01:33:16.209Z,18.60
2019-05-01T01:35:44.719Z,16.07
2019-05-01T01:38:13.254Z,17.20
2019-05-01T01:40:41.821Z,16.90
2019-05-01T01:43:28.285Z,16.75
2019-05-01T01:46:01.333Z,17.00
2019-05-01T01:48:29.866Z,16.97
2019-05-01T01:50:58.425Z,18.77
2019-05-01T01:53:26.949Z,17.30
2019-05-01T01:55:55.525Z,17.40
2019-05-01T01:58:23.970Z,18.90
2019-05-01T02:00:54.635Z,17.60
2019-05-01T02:03:24.912Z,21.35
2019-05-01T02:05:53.464Z,18.70
2019-05-01T02:08:21.940Z,17.50
2019-05-01T02:10:50.499Z,17.50
2019-05-01T02:13:19.042Z,18.55
2019-05-01T02:15:47.533Z,17.70
2019-05-01T02:18:16.066Z,19.27
2019-05-01T02:20:44.557Z,16.43
2019-05-01T02:23:13.016Z,17.27
2019-05-01T02:25:43.181Z,17.30
2019-05-01T02:28:22.545Z,17.73
2019-05-01T02:31:26.683Z,19.97
2019-05-01T02:33:40.929Z,18.80
2019-05-01T02:36:10.689Z,19.53
2019-05-01T02:38:40.954Z,18.77
2019-05-01T02:41:11.053Z,17.23
2019-05-01T02:43:41.413Z,18.85
2019-05-01T02:46:11.636Z,18.43
2019-05-01T02:48:43.281Z,17.27
2019-05-01T02:51:12.542Z,19.40
2019-05-01T02:53:43.503Z,17.57
2019-05-01T02:56:23.441Z,18.10
2019-05-01T02:58:52.574Z,18.30
2019-05-01T03:01:21.830Z,18.63
2019-05-01T03:03:51.375Z,17.85
2019-05-01T03:06:20.312Z,17.73
2019-05-01T03:08:48.778Z,17.67
2019-05-01T03:11:17.267Z,19.53
2019-05-01T03:13:46.810Z,18.10
2019-05-01T03:16:16.450Z,19.20
2019-05-01T03:18:56.077Z,19.32
2019-05-01T03:21:32.371Z,18.20
2019-05-01T03:24:05.243Z,19.20
2019-05-01T03:26:35.210Z,19.60
2019-05-01T03:29:05.310Z,19.15
2019-05-01T03:31:33.807Z,18.73
2019-05-01T03:34:02.347Z,18.15
2019-05-01T03:36:30.849Z,18.90
2019-05-01T03:38:59.310Z,19.48
2019-05-01T03:41:27.986Z,19.30
2019-05-01T03:43:56.514Z,20.15
2019-05-01T03:46:25.554Z,19.80
2019-05-01T03:48:54.014Z,18.37
2019-05-01T03:51:22.671Z,19.20
2019-05-01T03:53:51.132Z,18.15
2019-05-01T03:56:19.631Z,17.07
2019-05-01T03:58:48.167Z,19.27
2019-05-01T04:01:18.370Z,18.70
2019-05-01T04:03:48.539Z,18.32
2019-05-01T04:06:17.039Z,19.50
2019-05-01T04:08:45.513Z,18.95
2019-05-01T04:11:14.125Z,19.07
2019-05-01T04:13:42.596Z,16.77
2019-05-01T04:16:11.230Z,18.60
2019-05-01T04:18:39.712Z,16.90
2019-05-01T04:21:09.213Z,18.53
2019-05-01T04:23:38.245Z,18.42
2019-05-01T04:26:07.574Z,17.07
2019-05-01T04:28:40.569Z,17.40
2019-05-01T04:31:14.462Z,20.23
2019-05-01T04:33:44.586Z,18.30
2019-05-01T04:36:17.905Z,18.23
2019-05-01T04:38:46.464Z,18.57
2019-05-01T04:41:15.202Z,19.40
2019-05-01T04:43:43.876Z,19.20
2019-05-01T04:46:12.506Z,19.60
2019-05-01T04:48:41.441Z,18.50
2019-05-01T04:51:10.115Z,19.00
2019-05-01T04:53:38.664Z,20.23
2019-05-01T04:56:07.132Z,19.20
2019-05-01T04:58:35.688Z,18.40
2019-05-01T05:01:04.236Z,17.70
2019-05-01T05:03:32.902Z,19.40
2019-05-01T05:06:01.444Z,20.07
2019-05-01T05:08:30.108Z,18.90
2019-05-01T05:11:00.653Z,19.50
2019-05-01T05:13:36.658Z,19.77
2019-05-01T05:16:22.209Z,17.30
2019-05-01T05:18:51.098Z,16.40
2019-05-01T05:21:19.613Z,18.03
2019-05-01T05:23:48.965Z,19.23
2019-05-01T05:26:17.503Z,17.57
2019-05-01T05:28:46.374Z,18.90
2019-05-01T05:31:15.103Z,19.30
2019-05-01T05:33:45.338Z,18.25
2019-05-01T05:36:15.066Z,18.57
2019-05-01T05:38:51.408Z,18.92
2019-05-01T05:41:19.915Z,18.97
2019-05-01T05:43:48.877Z,20.27
2019-05-01T05:46:17.335Z,20.10
2019-05-01T05:48:45.976Z,20.00
2019-05-01T05:51:31.864Z,20.50
2019-05-01T05:54:03.702Z,19.77
2019-05-01T05:56:51.721Z,21.20
2019-05-01T05:59:28.847Z,18.17
2019-05-01T06:02:05.929Z,18.97
2019-05-01T06:04:52.817Z,19.50
2019-05-01T06:07:24.593Z,19.23
2019-05-01T06:10:08.185Z,19.70
2019-05-01T06:12:46.884Z,20.17
2019-05-01T06:15:18.841Z,29.95
2019-05-01T06:17:51.432Z,30.55
2019-05-01T06:20:25.816Z,22.95
2019-05-01T06:23:08.915Z,19.05
2019-05-01T06:25:40.598Z,19.77
2019-05-01T06:28:09.237Z,22.52
2019-05-01T06:30:41.936Z,18.10
2019-05-01T06:33:09.385Z,21.73
2019-05-01T06:35:39.314Z,19.50
2019-05-01T06:38:13.902Z,18.75
2019-05-01T06:40:47.466Z,19.70
2019-05-01T06:43:27.246Z,19.27
2019-05-01T06:46:12.453Z,20.67
2019-05-01T06:48:57.472Z,18.10
2019-05-01T06:51:36.902Z,19.70
2019-05-01T06:54:11.325Z,18.57
2019-05-01T06:56:41.455Z,18.97
2019-05-01T06:59:10.178Z,18.95
2019-05-01T07:01:39.038Z,18.63
2019-05-01T07:04:07.573Z,19.25
2019-05-01T07:06:36.727Z,18.37
2019-05-01T07:09:11.906Z,18.92
2019-05-01T07:11:38.564Z,18.40
2019-05-01T07:14:11.084Z,17.77
2019-05-01T07:16:38.090Z,18.30
2019-05-01T07:19:08.847Z,17.85
2019-05-01T07:21:38.018Z,18.12
2019-05-01T07:24:06.657Z,25.52
2019-05-01T07:26:35.229Z,21.65
2019-05-01T07:29:11.288Z,18.10
2019-05-01T07:31:39.788Z,17.30
2019-05-01T07:34:16.296Z,17.27
2019-05-01T07:36:38.468Z,15.58
2019-05-01T07:39:09.847Z,16.57
2019-05-01T07:41:39.021Z,16.60
2019-05-01T07:44:15.089Z,15.53
2019-05-01T07:47:01.753Z,16.73
2019-05-01T07:49:52.869Z,14.95
2019-05-01T07:52:20.999Z,16.10
2019-05-01T07:54:49.845Z,16.45
2019-05-01T07:57:18.520Z,16.17
2019-05-01T07:59:47.245Z,17.60
2019-05-01T08:02:15.753Z,14.53
2019-05-01T08:04:44.221Z,17.30
2019-05-01T08:07:12.722Z,17.85
2019-05-01T08:09:41.188Z,14.93
2019-05-01T08:12:09.685Z,14.80
2019-05-01T08:14:38.237Z,16.65
2019-05-01T08:17:06.818Z,17.07
2019-05-01T08:19:45.461Z,17.12
2019-05-01T08:22:21.581Z,17.07
2019-05-01T08:24:53.857Z,15.75
2019-05-01T08:27:21.831Z,16.20
2019-05-01T08:30:07.889Z,14.98
2019-05-01T08:32:39.085Z,15.43
2019-05-01T08:35:15.683Z,14.83
2019-05-01T08:37:44.201Z,17.27
2019-05-01T08:40:15.820Z,17.67
2019-05-01T08:42:44.182Z,17.60
2019-05-01T08:45:22.997Z,15.58
2019-05-01T08:48:11.241Z,14.70
2019-05-01T08:50:39.710Z,13.97
2019-05-01T08:53:08.222Z,14.47
2019-05-01T08:55:39.893Z,14.40
2019-05-01T08:58:08.871Z,14.40
2019-05-01T09:00:40.972Z,12.57
2019-05-01T09:03:08.658Z,12.20
2019-05-01T09:05:37.320Z,13.17
2019-05-01T09:08:05.820Z,14.47
2019-05-01T09:10:34.300Z,12.90
2019-05-01T09:13:02.810Z,13.07
2019-05-01T09:15:31.350Z,12.87
2019-05-01T09:17:59.848Z,12.47
2019-05-01T09:20:28.989Z,10.57
2019-05-01T09:22:57.487Z,11.27
2019-05-01T09:25:30.934Z,12.67
2019-05-01T09:28:04.160Z,11.57
2019-05-01T09:30:36.500Z,13.13
2019-05-01T09:33:05.086Z,10.87
2019-05-01T09:35:33.626Z,11.17
2019-05-01T09:38:02.176Z,10.43
2019-05-01T09:40:30.642Z,11.27
2019-05-01T09:43:00.943Z,9.33
2019-05-01T09:45:29.329Z,11.97
2019-05-01T09:47:57.960Z,9.90
2019-05-01T09:50:30.408Z,9.67
2019-05-01T09:53:01.046Z,9.70
2019-05-01T09:55:31.367Z,11.37
2019-05-01T09:58:02.656Z,10.97
2019-05-01T10:00:33.477Z,8.23
2019-05-01T10:03:01.953Z,7.77
2019-05-01T10:05:30.444Z,8.18
2019-05-01T10:08:00.165Z,6.50
2019-05-01T10:10:30.615Z,7.07
2019-05-01T10:12:59.243Z,7.60
2019-05-01T10:15:27.736Z,8.20
2019-05-01T10:17:56.202Z,8.27
2019-05-01T10:20:24.680Z,5.57
2019-05-01T10:22:53.208Z,6.80
2019-05-01T10:25:21.704Z,8.10
2019-05-01T10:28:00.580Z,8.40
2019-05-01T10:30:42.380Z,8.67
2019-05-01T10:33:12.485Z,13.97
2019-05-01T10:35:58.870Z,9.83
2019-05-01T10:38:27.336Z,9.47
2019-05-01T10:40:55.843Z,7.40
2019-05-01T10:43:24.311Z,7.97
2019-05-01T10:45:52.797Z,8.50
2019-05-01T10:48:21.272Z,15.10
2019-05-01T10:50:49.779Z,34.07
2019-05-01T10:53:18.251Z,37.63
2019-05-01T10:55:46.741Z,34.10
2019-05-01T10:58:18.365Z,23.73
2019-05-01T11:00:47.158Z,29.37
2019-05-01T11:03:15.620Z,52.87
2019-05-01T11:05:55.316Z,86.27
2019-05-01T11:08:14.392Z,54.57
2019-05-01T11:10:42.885Z,52.77
2019-05-01T11:13:11.357Z,31.20
2019-05-01T11:15:39.911Z,32.48
2019-05-01T11:18:08.507Z,39.03
2019-05-01T11:20:37.006Z,45.58
2019-05-01T11:23:05.551Z,19.13
2019-05-01T11:25:34.544Z,14.10
2019-05-01T11:28:03.180Z,11.40
2019-05-01T11:30:31.674Z,8.60
2019-05-01T11:33:07.321Z,6.87
2019-05-01T11:35:37.520Z,6.90
2019-05-01T11:38:10.339Z,7.50
2019-05-01T11:40:43.213Z,7.00
2019-05-01T11:43:11.738Z,6.17
2019-05-01T11:45:40.305Z,5.80
2019-05-01T11:48:08.773Z,5.60
2019-05-01T11:50:37.426Z,5.23
2019-05-01T11:53:05.972Z,6.13
2019-05-01T11:55:34.461Z,6.50
2019-05-01T11:58:02.930Z,5.70
2019-05-01T12:00:31.423Z,7.93
2019-05-01T12:02:59.936Z,5.47
2019-05-01T12:05:28.620Z,5.90
2019-05-01T12:07:57.171Z,6.00
2019-05-01T12:10:25.704Z,6.03
2019-05-01T12:12:54.194Z,6.33
2019-05-01T12:15:22.725Z,7.07
2019-05-01T12:17:51.391Z,6.13
2019-05-01T12:20:21.467Z,9.00
2019-05-01T12:22:51.543Z,8.50
2019-05-01T12:25:20.254Z,8.03
2019-05-01T12:27:48.865Z,5.97
2019-05-01T12:30:19.084Z,5.10
2019-05-01T12:32:47.565Z,4.97
2019-05-01T12:35:16.194Z,3.97
2019-05-01T12:37:44.680Z,5.20
2019-05-01T12:40:15.279Z,4.90
2019-05-01T12:42:43.908Z,4.83
2019-05-01T12:45:14.012Z,5.10
2019-05-01T12:47:56.264Z,5.07
2019-05-01T12:50:24.803Z,5.53
2019-05-01T12:52:58.086Z,4.63
2019-05-01T12:55:30.868Z,4.33
2019-05-01T12:57:59.361Z,3.80
2019-05-01T13:00:42.428Z,3.80
2019-05-01T13:03:11.364Z,3.80
2019-05-01T13:05:39.821Z,4.57
2019-05-01T13:08:08.309Z,5.13
2019-05-01T13:10:36.839Z,4.97
2019-05-01T13:13:05.398Z,4.70
2019-05-01T13:15:33.860Z,6.37
2019-05-01T13:18:02.346Z,4.50
2019-05-01T13:20:30.813Z,5.30
2019-05-01T13:22:59.300Z,4.63
2019-05-01T13:25:27.758Z,4.60
2019-05-01T13:28:03.959Z,4.50
2019-05-01T13:30:50.121Z,5.40
2019-05-01T13:33:18.612Z,6.10
2019-05-01T13:35:47.080Z,5.30
2019-05-01T13:38:15.656Z,5.90
2019-05-01T13:40:44.176Z,4.37
2019-05-01T13:43:12.667Z,4.70
2019-05-01T13:45:41.128Z,3.60
2019-05-01T13:48:09.678Z,5.00
2019-05-01T13:50:38.132Z,3.70
2019-05-01T13:53:06.696Z,3.60
2019-05-01T13:55:35.149Z,5.50
2019-05-01T13:58:03.917Z,5.87
2019-05-01T14:00:32.356Z,4.50
2019-05-01T14:03:00.866Z,5.77
2019-05-01T14:05:29.486Z,4.70
2019-05-01T14:07:57.990Z,4.67
2019-05-01T14:10:26.638Z,5.13
2019-05-01T14:15:24.020Z,3.83
2019-05-01T14:17:52.484Z,6.27
2019-05-01T14:20:31.510Z,7.05
2019-05-01T14:23:01.613Z,5.67
2019-05-01T14:25:31.747Z,6.00
2019-05-01T14:28:00.205Z,7.27
2019-05-01T14:30:28.701Z,6.27
2019-05-01T14:32:57.166Z,6.60
2019-05-01T14:35:25.663Z,5.90
2019-05-01T14:37:54.125Z,4.80
2019-05-01T14:40:22.707Z,5.40
2019-05-01T14:42:51.169Z,5.93
2019-05-01T14:45:19.839Z,5.23
2019-05-01T14:47:48.295Z,4.80
2019-05-01T14:50:16.858Z,6.08
2019-05-01T14:52:45.327Z,5.60
2019-05-01T14:55:13.885Z,6.13
2019-05-01T14:57:42.431Z,5.53
2019-05-01T15:00:11.763Z,5.33
2019-05-01T15:02:40.224Z,5.40
2019-05-01T15:05:08.784Z,3.63
2019-05-01T15:07:43.748Z,4.70
2019-05-01T15:10:07.549Z,5.33
2019-05-01T15:12:36.007Z,5.60
2019-05-01T15:15:10.675Z,4.07
2019-05-01T15:17:53.307Z,4.60
2019-05-01T15:20:21.718Z,4.53
2019-05-01T15:22:50.191Z,3.80
2019-05-01T15:25:18.792Z,4.20
2019-05-01T15:27:47.242Z,4.83
2019-05-01T15:30:17.778Z,3.77
2019-05-01T15:32:46.664Z,6.03
2019-05-01T15:35:15.161Z,5.00
2019-05-01T15:37:55.760Z,5.70
2019-05-01T15:40:18.119Z,4.70
2019-05-01T15:42:48.213Z,4.13
2019-05-01T15:45:17.278Z,5.50
2019-05-01T15:47:45.746Z,3.70
2019-05-01T15:50:14.241Z,5.50
2019-05-01T15:52:42.709Z,5.43
2019-05-01T15:55:11.630Z,4.90
2019-05-01T15:57:40.093Z,5.70
2019-05-01T16:00:09.504Z,4.87
2019-05-01T16:02:37.967Z,4.03
2019-05-01T16:05:06.806Z,3.73
2019-05-01T16:07:35.258Z,3.27
2019-05-01T16:10:10.191Z,4.57
2019-05-01T16:12:43.240Z,3.70
2019-05-01T16:15:13.509Z,4.77
2019-05-01T16:17:41.991Z,3.97
2019-05-01T16:20:10.539Z,4.20
2019-05-01T16:22:38.996Z,3.30
2019-05-01T16:25:07.737Z,3.30
2019-05-01T16:27:36.355Z,3.90
2019-05-01T16:30:07.145Z,3.85
2019-05-01T16:32:35.617Z,3.83
2019-05-01T16:35:04.942Z,4.10
2019-05-01T16:37:33.478Z,5.00
2019-05-01T16:40:09.477Z,4.13
2019-05-01T16:42:37.941Z,4.87
2019-05-01T16:45:07.941Z,5.77
2019-05-01T16:47:36.403Z,4.40
2019-05-01T16:50:09.001Z,5.60
2019-05-01T16:52:37.623Z,5.43
2019-05-01T16:55:07.426Z,4.60
2019-05-01T16:57:35.993Z,4.67
2019-05-01T17:00:08.206Z,4.70
2019-05-01T17:02:53.298Z,4.70
2019-05-01T17:05:23.425Z,5.20
2019-05-01T17:07:56.485Z,5.37
2019-05-01T17:10:26.694Z,4.00
2019-05-01T17:12:56.455Z,4.67
2019-05-01T17:15:26.744Z,7.40
2019-05-01T17:17:55.204Z,7.37
2019-05-01T17:20:24.422Z,9.67
2019-05-01T17:22:53.000Z,6.30
2019-05-01T17:25:21.524Z,4.50
2019-05-01T17:27:50.083Z,4.83
2019-05-01T17:30:23.352Z,4.00
2019-05-01T17:32:51.855Z,5.00
2019-05-01T17:35:20.459Z,6.10
2019-05-01T17:37:48.945Z,5.80
2019-05-01T17:40:17.417Z,5.35
2019-05-01T17:42:45.940Z,4.40
2019-05-01T17:45:14.475Z,4.23
2019-05-01T17:47:43.032Z,3.90
2019-05-01T17:50:11.663Z,5.10
2019-05-01T17:52:40.162Z,5.60
2019-05-01T17:55:08.693Z,6.47
2019-05-01T17:57:37.178Z,5.13
2019-05-01T18:00:17.680Z,4.70
2019-05-01T18:02:47.812Z,4.87
2019-05-01T18:05:23.913Z,4.80
2019-05-01T18:07:52.425Z,4.37
2019-05-01T18:10:20.885Z,4.53
2019-05-01T18:12:49.373Z,5.00
2019-05-01T18:15:17.835Z,4.90
2019-05-01T18:17:46.321Z,5.03
2019-05-01T18:20:14.790Z,4.13
2019-05-01T18:22:47.394Z,5.17
2019-05-01T18:25:17.560Z,5.90
2019-05-01T18:28:03.750Z,5.37
2019-05-01T18:30:33.855Z,5.30
2019-05-01T18:33:02.372Z,5.10
2019-05-01T18:35:30.987Z,5.17
2019-05-01T18:38:06.297Z,5.20
2019-05-01T18:40:36.033Z,6.03
2019-05-01T18:43:05.133Z,4.90
2019-05-01T18:45:48.487Z,4.93
2019-05-01T18:48:17.078Z,4.90
2019-05-01T18:50:49.637Z,5.77
2019-05-01T18:53:16.111Z,5.27
2019-05-01T18:55:44.592Z,5.53
2019-05-01T18:58:13.242Z,5.47
2019-05-01T19:00:41.817Z,6.77
2019-05-01T19:03:10.384Z,7.23
2019-05-01T19:05:43.143Z,7.10
2019-05-01T19:08:09.462Z,7.63
2019-05-01T19:10:38.105Z,6.70
2019-05-01T19:13:07.029Z,6.47
2019-05-01T19:15:35.531Z,8.00
2019-05-01T19:18:04.457Z,7.17
2019-05-01T19:20:33.052Z,7.47
2019-05-01T19:23:01.524Z,6.67
2019-05-01T19:25:29.982Z,6.40
2019-05-01T19:27:58.492Z,8.10
2019-05-01T19:30:27.069Z,8.40
2019-05-01T19:32:55.540Z,7.30
2019-05-01T19:35:29.636Z,7.67
2019-05-01T19:37:57.423Z,6.80
2019-05-01T19:40:25.105Z,7.33
2019-05-01T19:42:57.969Z,7.00
2019-05-01T19:45:24.752Z,6.60
2019-05-01T19:47:53.437Z,7.83
2019-05-01T19:50:22.164Z,7.50
2019-05-01T19:52:50.964Z,7.20
2019-05-01T19:55:19.763Z,6.93
2019-05-01T19:57:48.225Z,7.67
2019-05-01T20:00:20.825Z,6.53
2019-05-01T20:02:49.353Z,6.70
2019-05-01T20:05:21.984Z,7.00
2019-05-01T20:07:51.158Z,5.90
2019-05-01T20:10:18.209Z,7.00
2019-05-01T20:12:46.769Z,7.10
2019-05-01T20:15:19.925Z,7.43
2019-05-01T20:17:45.458Z,7.13
2019-05-01T20:20:14.064Z,8.00
2019-05-01T20:22:42.565Z,7.90
2019-05-01T20:25:14.623Z,9.25
2019-05-01T20:27:47.838Z,9.03
2019-05-01T20:30:13.604Z,8.10
2019-05-01T20:32:42.055Z,9.07
2019-05-01T20:35:10.638Z,8.40
2019-05-01T20:37:39.099Z,8.63
2019-05-01T20:40:11.415Z,8.70
2019-05-01T20:42:38.050Z,9.20
2019-05-01T20:45:13.020Z,9.57
2019-05-01T20:47:45.118Z,9.30
2019-05-01T20:50:08.490Z,8.60
2019-05-01T20:52:36.967Z,8.40
2019-05-01T20:55:06.622Z,8.18
2019-05-01T20:57:37.037Z,8.13
2019-05-01T21:00:11.427Z,8.43
2019-05-01T21:02:38.947Z,9.50
2019-05-01T21:05:24.501Z,9.37
2019-05-01T21:08:09.213Z,8.00
2019-05-01T21:10:53.986Z,7.70
2019-05-01T21:13:23.078Z,8.20
2019-05-01T21:15:56.252Z,8.10
2019-05-01T21:18:26.077Z,8.40
2019-05-01T21:20:54.041Z,8.40
2019-05-01T21:23:23.332Z,7.50
2019-05-01T21:25:53.742Z,7.63
2019-05-01T21:28:23.864Z,7.40
2019-05-01T21:30:54.392Z,7.77
2019-05-01T21:33:23.765Z,8.10
2019-05-01T21:35:53.329Z,8.70
2019-05-01T21:38:21.833Z,8.00
2019-05-01T21:40:50.773Z,8.57
2019-05-01T21:43:19.285Z,9.00
2019-05-01T21:45:47.798Z,9.38
2019-05-01T21:48:16.261Z,9.33
2019-05-01T21:50:44.768Z,9.70
2019-05-01T21:53:13.228Z,10.03
2019-05-01T21:55:41.720Z,8.47
2019-05-01T21:58:10.188Z,9.70
2019-05-01T22:00:40.526Z,9.40
2019-05-01T22:03:09.048Z,8.30
2019-05-01T22:05:39.685Z,9.70
2019-05-01T22:08:08.287Z,8.30
2019-05-01T22:10:51.785Z,8.57
2019-05-01T22:13:14.896Z,10.33
2019-05-01T22:15:47.268Z,9.93
2019-05-01T22:18:25.581Z,8.20
2019-05-01T22:21:07.327Z,9.40
2019-05-01T22:23:53.794Z,9.10
2019-05-01T22:26:23.227Z,9.60
2019-05-01T22:28:54.833Z,8.67
2019-05-01T22:31:25.374Z,9.90
2019-05-01T22:33:55.543Z,9.10
2019-05-01T22:36:24.042Z,8.73
2019-05-01T22:38:52.520Z,10.27
2019-05-01T22:41:21.035Z,8.80
2019-05-01T22:43:49.510Z,8.97
2019-05-01T22:46:19.644Z,8.80
2019-05-01T22:48:48.112Z,9.93
2019-05-01T22:51:21.151Z,9.53
2019-05-01T22:53:51.328Z,9.47
2019-05-01T22:56:19.829Z,9.33
2019-05-01T22:58:48.298Z,9.13
2019-05-01T23:01:18.105Z,8.73
2019-05-01T23:03:51.785Z,10.20
2019-05-01T23:06:20.366Z,10.53
2019-05-01T23:08:48.832Z,10.63
2019-05-01T23:11:20.018Z,10.23
2019-05-01T23:13:47.516Z,9.67
2019-05-01T23:16:17.585Z,9.10
2019-05-01T23:18:47.026Z,9.83
2019-05-01T23:21:16.288Z,10.00
2019-05-01T23:23:44.769Z,9.90
2019-05-01T23:26:16.677Z,9.13
2019-05-01T23:28:43.381Z,8.60
2019-05-01T23:31:11.870Z,9.47
2019-05-01T23:33:40.405Z,8.33
2019-05-01T23:36:08.901Z,8.63
2019-05-01T23:38:37.438Z,10.17
2019-05-01T23:41:05.933Z,9.37
2019-05-01T23:43:34.405Z,10.70
2019-05-01T23:46:02.904Z,9.17
2019-05-01T23:48:31.374Z,8.90
2019-05-01T23:50:59.938Z,9.33
2019-05-01T23:53:28.408Z,8.60
2019-05-01T23:56:00.205Z,9.00
2019-05-01T23:58:27.022Z,8.57
